sensor_id;sensor_type;location;lat;lon;timestamp;P1;durP1;ratioP1;P2;durP2;ratioP2
3755;SDS011;1893;52.526;13.360;2022-10-23T00:01:54;11.67;;;7.27;;
3755;SDS011;1893;52.526;13.360;2022-10-23T00:04:20;11.23;;;6.43;;
3755;SDS011;1893;52.526;13.360;2022-10-23T00:06:49;14.50;;;7.70;;
3755;SDS011;1893;52.526;13.360;2022-10-23T00:09:15;11.60;;;7.53;;
3755;SDS011;1893;52.526;13.360;2022-10-23T00:11:42;13.73;;;7.23;;
3755;SDS011;1893;52.526;13.360;2022-10-23T00:14:11;13.60;;;8.27;;
3755;SDS011;1893;52.526;13.360;2022-10-23T00:16:37;13.87;;;8.13;;
3755;SDS011;1893;52.526;13.360;2022-10-23T00:19:03;14.30;;;7.60;;
3755;SDS011;1893;52.526;13.360;2022-10-23T00:21:29;10.70;;;7.87;;
3755;SDS011;1893;52.526;13.360;2022-10-23T00:23:54;13.13;;;8.33;;
3755;SDS011;1893;52.526;13.360;2022-10-23T00:26:20;16.80;;;8.87;;
3755;SDS011;1893;52.526;13.360;2022-10-23T00:28:48;11.33;;;7.27;;
3755;SDS011;1893;52.526;13.360;2022-10-23T00:31:15;11.07;;;7.00;;
3755;SDS011;1893;52.526;13.360;2022-10-23T00:33:42;15.53;;;8.40;;
3755;SDS011;1893;52.526;13.360;2022-10-23T00:36:09;11.43;;;8.63;;
3755;SDS011;1893;52.526;13.360;2022-10-23T00:38:36;13.10;;;8.27;;
3755;SDS011;1893;52.526;13.360;2022-10-23T00:41:03;12.83;;;6.47;;
3755;SDS011;1893;52.526;13.360;2022-10-23T00:43:30;10.40;;;7.30;;
3755;SDS011;1893;52.526;13.360;2022-10-23T00:45:57;12.57;;;7.53;;
3755;SDS011;1893;52.526;13.360;2022-10-23T00:48:23;10.57;;;6.83;;
3755;SDS011;1893;52.526;13.360;2022-10-23T00:50:50;9.13;;;6.90;;
3755;SDS011;1893;52.526;13.360;2022-10-23T00:53:16;9.17;;;7.30;;
3755;SDS011;1893;52.526;13.360;2022-10-23T00:55:44;12.27;;;7.13;;
3755;SDS011;1893;52.526;13.360;2022-10-23T00:58:13;9.20;;;7.20;;
3755;SDS011;1893;52.526;13.360;2022-10-23T01:00:42;12.33;;;6.90;;
3755;SDS011;1893;52.526;13.360;2022-10-23T01:03:13;10.10;;;7.13;;
3755;SDS011;1893;52.526;13.360;2022-10-23T01:05:48;7.40;;;6.37;;
3755;SDS011;1893;52.526;13.360;2022-10-23T01:08:40;11.30;;;6.70;;
3755;SDS011;1893;52.526;13.360;2022-10-23T01:11:39;11.20;;;5.87;;
3755;SDS011;1893;52.526;13.360;2022-10-23T01:14:31;11.07;;;6.63;;
3755;SDS011;1893;52.526;13.360;2022-10-23T01:17:37;11.97;;;6.40;;
3755;SDS011;1893;52.526;13.360;2022-10-23T01:28:24;6.73;;;5.63;;
3755;SDS011;1893;52.526;13.360;2022-10-23T01:30:56;12.03;;;7.37;;
3755;SDS011;1893;52.526;13.360;2022-10-23T01:33:27;17.40;;;6.50;;
3755;SDS011;1893;52.526;13.360;2022-10-23T01:36:00;13.10;;;6.37;;
3755;SDS011;1893;52.526;13.360;2022-10-23T01:38:43;8.60;;;6.40;;
3755;SDS011;1893;52.526;13.360;2022-10-23T01:41:15;9.23;;;5.30;;
3755;SDS011;1893;52.526;13.360;2022-10-23T01:46:16;11.83;;;6.83;;
3755;SDS011;1893;52.526;13.360;2022-10-23T01:48:45;12.23;;;6.30;;
3755;SDS011;1893;52.526;13.360;2022-10-23T01:51:16;12.20;;;6.57;;
3755;SDS011;1893;52.526;13.360;2022-10-23T01:53:45;12.70;;;7.37;;
3755;SDS011;1893;52.526;13.360;2022-10-23T01:56:15;13.00;;;6.10;;
3755;SDS011;1893;52.526;13.360;2022-10-23T01:58:44;13.43;;;6.30;;
3755;SDS011;1893;52.526;13.360;2022-10-23T02:01:12;7.90;;;5.73;;
3755;SDS011;1893;52.526;13.360;2022-10-23T02:03:40;9.33;;;5.50;;
3755;SDS011;1893;52.526;13.360;2022-10-23T02:06:08;9.63;;;6.17;;
3755;SDS011;1893;52.526;13.360;2022-10-23T02:08:34;7.70;;;6.13;;
3755;SDS011;1893;52.526;13.360;2022-10-23T02:11:07;13.60;;;7.07;;
3755;SDS011;1893;52.526;13.360;2022-10-23T02:13:45;8.17;;;5.53;;
3755;SDS011;1893;52.526;13.360;2022-10-23T02:24:01;8.97;;;6.90;;
3755;SDS011;1893;52.526;13.360;2022-10-23T02:26:33;8.80;;;5.50;;
3755;SDS011;1893;52.526;13.360;2022-10-23T02:29:05;10.77;;;6.67;;
3755;SDS011;1893;52.526;13.360;2022-10-23T02:31:44;8.90;;;5.50;;
3755;SDS011;1893;52.526;13.360;2022-10-23T02:34:10;6.80;;;6.07;;
3755;SDS011;1893;52.526;13.360;2022-10-23T02:36:35;7.50;;;6.10;;
3755;SDS011;1893;52.526;13.360;2022-10-23T02:39:01;11.20;;;5.50;;
3755;SDS011;1893;52.526;13.360;2022-10-23T02:41:36;7.83;;;6.20;;
3755;SDS011;1893;52.526;13.360;2022-10-23T02:44:24;12.60;;;6.23;;
3755;SDS011;1893;52.526;13.360;2022-10-23T02:47:00;12.80;;;6.50;;
3755;SDS011;1893;52.526;13.360;2022-10-23T02:58:09;10.33;;;6.40;;
3755;SDS011;1893;52.526;13.360;2022-10-23T03:00:59;11.40;;;6.90;;
3755;SDS011;1893;52.526;13.360;2022-10-23T03:03:44;8.40;;;6.47;;
3755;SDS011;1893;52.526;13.360;2022-10-23T03:06:37;13.37;;;5.87;;
3755;SDS011;1893;52.526;13.360;2022-10-23T03:09:04;15.17;;;7.70;;
3755;SDS011;1893;52.526;13.360;2022-10-23T03:11:31;10.70;;;6.40;;
3755;SDS011;1893;52.526;13.360;2022-10-23T03:13:57;14.70;;;6.40;;
3755;SDS011;1893;52.526;13.360;2022-10-23T03:16:22;9.77;;;6.73;;
3755;SDS011;1893;52.526;13.360;2022-10-23T03:18:48;10.83;;;6.47;;
3755;SDS011;1893;52.526;13.360;2022-10-23T03:21:13;12.47;;;7.27;;
3755;SDS011;1893;52.526;13.360;2022-10-23T03:23:39;11.73;;;7.47;;
3755;SDS011;1893;52.526;13.360;2022-10-23T03:26:04;14.00;;;7.17;;
3755;SDS011;1893;52.526;13.360;2022-10-23T03:28:30;10.93;;;7.13;;
3755;SDS011;1893;52.526;13.360;2022-10-23T03:30:56;10.00;;;7.40;;
3755;SDS011;1893;52.526;13.360;2022-10-23T03:33:22;12.27;;;7.30;;
3755;SDS011;1893;52.526;13.360;2022-10-23T03:35:47;7.80;;;6.13;;
3755;SDS011;1893;52.526;13.360;2022-10-23T03:38:13;16.33;;;6.40;;
3755;SDS011;1893;52.526;13.360;2022-10-23T03:40:39;13.80;;;7.93;;
3755;SDS011;1893;52.526;13.360;2022-10-23T03:43:05;11.70;;;6.90;;
3755;SDS011;1893;52.526;13.360;2022-10-23T03:45:30;13.03;;;7.37;;
3755;SDS011;1893;52.526;13.360;2022-10-23T03:47:56;11.93;;;8.60;;
3755;SDS011;1893;52.526;13.360;2022-10-23T03:50:22;13.10;;;7.27;;
3755;SDS011;1893;52.526;13.360;2022-10-23T03:52:48;10.53;;;7.87;;
3755;SDS011;1893;52.526;13.360;2022-10-23T03:55:14;12.77;;;7.90;;
3755;SDS011;1893;52.526;13.360;2022-10-23T03:57:40;11.40;;;7.37;;
3755;SDS011;1893;52.526;13.360;2022-10-23T04:00:06;10.10;;;7.57;;
3755;SDS011;1893;52.526;13.360;2022-10-23T04:02:32;8.53;;;6.37;;
3755;SDS011;1893;52.526;13.360;2022-10-23T04:04:57;9.77;;;7.43;;
3755;SDS011;1893;52.526;13.360;2022-10-23T04:07:23;11.83;;;6.93;;
3755;SDS011;1893;52.526;13.360;2022-10-23T04:09:48;12.30;;;7.63;;
3755;SDS011;1893;52.526;13.360;2022-10-23T04:12:14;13.13;;;8.10;;
3755;SDS011;1893;52.526;13.360;2022-10-23T04:14:39;18.10;;;8.87;;
3755;SDS011;1893;52.526;13.360;2022-10-23T04:17:05;10.30;;;8.67;;
3755;SDS011;1893;52.526;13.360;2022-10-23T04:19:30;17.77;;;8.50;;
3755;SDS011;1893;52.526;13.360;2022-10-23T04:21:56;10.57;;;7.70;;
3755;SDS011;1893;52.526;13.360;2022-10-23T04:24:24;12.57;;;7.60;;
3755;SDS011;1893;52.526;13.360;2022-10-23T04:26:50;14.40;;;7.83;;
3755;SDS011;1893;52.526;13.360;2022-10-23T04:29:16;16.83;;;7.80;;
3755;SDS011;1893;52.526;13.360;2022-10-23T04:31:42;14.43;;;8.07;;
3755;SDS011;1893;52.526;13.360;2022-10-23T04:34:08;12.40;;;8.10;;
3755;SDS011;1893;52.526;13.360;2022-10-23T04:36:33;18.77;;;9.50;;
3755;SDS011;1893;52.526;13.360;2022-10-23T04:38:59;12.90;;;8.93;;
3755;SDS011;1893;52.526;13.360;2022-10-23T04:41:24;10.50;;;6.43;;
3755;SDS011;1893;52.526;13.360;2022-10-23T04:43:50;16.53;;;8.83;;
3755;SDS011;1893;52.526;13.360;2022-10-23T04:46:15;17.27;;;9.23;;
3755;SDS011;1893;52.526;13.360;2022-10-23T04:48:41;15.77;;;8.53;;
3755;SDS011;1893;52.526;13.360;2022-10-23T04:51:06;15.53;;;8.70;;
3755;SDS011;1893;52.526;13.360;2022-10-23T04:53:32;25.50;;;9.83;;
3755;SDS011;1893;52.526;13.360;2022-10-23T04:55:58;13.97;;;8.80;;
3755;SDS011;1893;52.526;13.360;2022-10-23T04:58:24;15.00;;;8.70;;
3755;SDS011;1893;52.526;13.360;2022-10-23T05:00:51;18.63;;;10.17;;
3755;SDS011;1893;52.526;13.360;2022-10-23T05:03:17;18.00;;;9.17;;
3755;SDS011;1893;52.526;13.360;2022-10-23T05:05:43;18.17;;;8.70;;
3755;SDS011;1893;52.526;13.360;2022-10-23T05:08:09;14.83;;;9.30;;
3755;SDS011;1893;52.526;13.360;2022-10-23T05:10:35;12.20;;;8.67;;
3755;SDS011;1893;52.526;13.360;2022-10-23T05:13:01;16.93;;;8.27;;
3755;SDS011;1893;52.526;13.360;2022-10-23T05:15:26;16.03;;;9.40;;
3755;SDS011;1893;52.526;13.360;2022-10-23T05:17:54;19.63;;;9.67;;
3755;SDS011;1893;52.526;13.360;2022-10-23T05:20:24;18.90;;;9.30;;
3755;SDS011;1893;52.526;13.360;2022-10-23T05:22:52;13.77;;;8.90;;
3755;SDS011;1893;52.526;13.360;2022-10-23T05:25:20;18.03;;;9.27;;
3755;SDS011;1893;52.526;13.360;2022-10-23T05:27:46;18.60;;;10.13;;
3755;SDS011;1893;52.526;13.360;2022-10-23T05:30:12;16.13;;;10.07;;
3755;SDS011;1893;52.526;13.360;2022-10-23T05:32:37;12.60;;;9.10;;
3755;SDS011;1893;52.526;13.360;2022-10-23T05:35:07;18.83;;;9.17;;
3755;SDS011;1893;52.526;13.360;2022-10-23T05:37:37;23.23;;;10.73;;
3755;SDS011;1893;52.526;13.360;2022-10-23T05:40:05;17.17;;;9.43;;
3755;SDS011;1893;52.526;13.360;2022-10-23T05:42:31;14.87;;;10.00;;
3755;SDS011;1893;52.526;13.360;2022-10-23T05:44:57;16.20;;;10.43;;
3755;SDS011;1893;52.526;13.360;2022-10-23T05:47:22;17.97;;;9.40;;
3755;SDS011;1893;52.526;13.360;2022-10-23T05:49:48;12.90;;;8.93;;
3755;SDS011;1893;52.526;13.360;2022-10-23T05:52:13;18.90;;;9.87;;
3755;SDS011;1893;52.526;13.360;2022-10-23T05:54:39;15.90;;;10.70;;
3755;SDS011;1893;52.526;13.360;2022-10-23T05:57:04;16.33;;;11.20;;
3755;SDS011;1893;52.526;13.360;2022-10-23T05:59:30;16.37;;;10.63;;
3755;SDS011;1893;52.526;13.360;2022-10-23T06:01:55;14.40;;;10.27;;
3755;SDS011;1893;52.526;13.360;2022-10-23T06:04:21;14.63;;;9.57;;
3755;SDS011;1893;52.526;13.360;2022-10-23T06:06:46;14.13;;;10.33;;
3755;SDS011;1893;52.526;13.360;2022-10-23T06:09:13;15.30;;;9.90;;
3755;SDS011;1893;52.526;13.360;2022-10-23T06:11:39;16.63;;;10.00;;
3755;SDS011;1893;52.526;13.360;2022-10-23T06:14:05;16.40;;;9.57;;
3755;SDS011;1893;52.526;13.360;2022-10-23T06:16:31;20.27;;;11.53;;
3755;SDS011;1893;52.526;13.360;2022-10-23T06:18:57;19.70;;;10.90;;
3755;SDS011;1893;52.526;13.360;2022-10-23T06:21:22;29.43;;;11.37;;
3755;SDS011;1893;52.526;13.360;2022-10-23T06:23:48;18.20;;;10.63;;
3755;SDS011;1893;52.526;13.360;2022-10-23T06:26:15;20.73;;;11.17;;
3755;SDS011;1893;52.526;13.360;2022-10-23T06:28:41;13.97;;;9.97;;
3755;SDS011;1893;52.526;13.360;2022-10-23T06:31:10;14.67;;;10.20;;
3755;SDS011;1893;52.526;13.360;2022-10-23T06:33:38;15.10;;;11.00;;
3755;SDS011;1893;52.526;13.360;2022-10-23T06:36:04;23.90;;;10.10;;
3755;SDS011;1893;52.526;13.360;2022-10-23T06:38:34;18.07;;;10.07;;
3755;SDS011;1893;52.526;13.360;2022-10-23T06:41:02;18.40;;;10.87;;
3755;SDS011;1893;52.526;13.360;2022-10-23T06:43:28;17.87;;;11.90;;
3755;SDS011;1893;52.526;13.360;2022-10-23T06:45:54;15.43;;;10.60;;
3755;SDS011;1893;52.526;13.360;2022-10-23T06:48:19;17.90;;;10.90;;
3755;SDS011;1893;52.526;13.360;2022-10-23T06:50:45;17.63;;;10.53;;
3755;SDS011;1893;52.526;13.360;2022-10-23T06:53:10;15.70;;;9.83;;
3755;SDS011;1893;52.526;13.360;2022-10-23T06:55:36;13.67;;;9.60;;
3755;SDS011;1893;52.526;13.360;2022-10-23T06:58:06;21.20;;;10.90;;
3755;SDS011;1893;52.526;13.360;2022-10-23T07:00:35;19.13;;;10.80;;
3755;SDS011;1893;52.526;13.360;2022-10-23T07:03:01;14.50;;;11.27;;
3755;SDS011;1893;52.526;13.360;2022-10-23T07:05:27;14.93;;;12.00;;
3755;SDS011;1893;52.526;13.360;2022-10-23T07:07:52;17.70;;;11.57;;
3755;SDS011;1893;52.526;13.360;2022-10-23T07:10:18;14.60;;;10.73;;
3755;SDS011;1893;52.526;13.360;2022-10-23T07:12:44;14.60;;;10.50;;
3755;SDS011;1893;52.526;13.360;2022-10-23T07:15:11;15.20;;;10.67;;
3755;SDS011;1893;52.526;13.360;2022-10-23T07:17:37;12.37;;;9.67;;
3755;SDS011;1893;52.526;13.360;2022-10-23T07:20:02;14.53;;;10.73;;
3755;SDS011;1893;52.526;13.360;2022-10-23T07:22:28;15.57;;;10.70;;
3755;SDS011;1893;52.526;13.360;2022-10-23T07:24:54;15.67;;;10.97;;
3755;SDS011;1893;52.526;13.360;2022-10-23T07:27:19;17.00;;;10.50;;
3755;SDS011;1893;52.526;13.360;2022-10-23T07:29:48;16.47;;;10.87;;
3755;SDS011;1893;52.526;13.360;2022-10-23T07:32:14;15.13;;;11.43;;
3755;SDS011;1893;52.526;13.360;2022-10-23T07:34:39;15.53;;;11.50;;
3755;SDS011;1893;52.526;13.360;2022-10-23T07:37:05;18.43;;;12.43;;
3755;SDS011;1893;52.526;13.360;2022-10-23T07:39:30;17.80;;;11.27;;
3755;SDS011;1893;52.526;13.360;2022-10-23T07:41:56;15.60;;;10.37;;
3755;SDS011;1893;52.526;13.360;2022-10-23T07:44:21;13.80;;;11.20;;
3755;SDS011;1893;52.526;13.360;2022-10-23T07:46:47;16.80;;;10.10;;
3755;SDS011;1893;52.526;13.360;2022-10-23T07:49:12;17.10;;;10.40;;
3755;SDS011;1893;52.526;13.360;2022-10-23T07:51:38;13.00;;;10.10;;
3755;SDS011;1893;52.526;13.360;2022-10-23T07:54:04;18.40;;;10.40;;
3755;SDS011;1893;52.526;13.360;2022-10-23T07:56:30;12.80;;;9.80;;
3755;SDS011;1893;52.526;13.360;2022-10-23T07:58:56;13.53;;;10.27;;
3755;SDS011;1893;52.526;13.360;2022-10-23T08:03:58;11.53;;;9.40;;
3755;SDS011;1893;52.526;13.360;2022-10-23T08:06:24;11.37;;;9.80;;
3755;SDS011;1893;52.526;13.360;2022-10-23T08:08:50;13.77;;;9.37;;
3755;SDS011;1893;52.526;13.360;2022-10-23T08:11:16;14.00;;;10.33;;
3755;SDS011;1893;52.526;13.360;2022-10-23T08:13:48;13.17;;;9.63;;
3755;SDS011;1893;52.526;13.360;2022-10-23T08:16:14;18.50;;;8.93;;
3755;SDS011;1893;52.526;13.360;2022-10-23T08:18:40;12.33;;;9.50;;
3755;SDS011;1893;52.526;13.360;2022-10-23T08:21:06;15.10;;;10.77;;
3755;SDS011;1893;52.526;13.360;2022-10-23T08:23:33;11.83;;;8.53;;
3755;SDS011;1893;52.526;13.360;2022-10-23T08:26:00;13.30;;;8.37;;
3755;SDS011;1893;52.526;13.360;2022-10-23T08:28:27;10.20;;;8.53;;
3755;SDS011;1893;52.526;13.360;2022-10-23T08:30:53;11.20;;;8.03;;
3755;SDS011;1893;52.526;13.360;2022-10-23T08:33:19;9.63;;;7.83;;
3755;SDS011;1893;52.526;13.360;2022-10-23T08:35:45;8.00;;;7.20;;
3755;SDS011;1893;52.526;13.360;2022-10-23T08:38:11;8.70;;;7.53;;
3755;SDS011;1893;52.526;13.360;2022-10-23T08:40:36;9.87;;;7.07;;
3755;SDS011;1893;52.526;13.360;2022-10-23T08:45:38;10.20;;;7.03;;
3755;SDS011;1893;52.526;13.360;2022-10-23T08:58:52;7.53;;;5.00;;
3755;SDS011;1893;52.526;13.360;2022-10-23T09:01:43;6.20;;;5.37;;
3755;SDS011;1893;52.526;13.360;2022-10-23T09:04:13;6.03;;;4.70;;
3755;SDS011;1893;52.526;13.360;2022-10-23T09:06:40;5.00;;;4.50;;
3755;SDS011;1893;52.526;13.360;2022-10-23T09:09:25;10.00;;;5.50;;
3755;SDS011;1893;52.526;13.360;2022-10-23T09:17:28;11.10;;;5.40;;
3755;SDS011;1893;52.526;13.360;2022-10-23T09:20:01;7.33;;;6.23;;
3755;SDS011;1893;52.526;13.360;2022-10-23T09:22:42;5.93;;;4.93;;
3755;SDS011;1893;52.526;13.360;2022-10-23T09:25:09;7.57;;;4.50;;
3755;SDS011;1893;52.526;13.360;2022-10-23T09:27:46;6.13;;;4.30;;
3755;SDS011;1893;52.526;13.360;2022-10-23T09:38:29;5.53;;;4.20;;
3755;SDS011;1893;52.526;13.360;2022-10-23T09:40:57;5.80;;;4.10;;
3755;SDS011;1893;52.526;13.360;2022-10-23T09:43:30;6.60;;;3.90;;
3755;SDS011;1893;52.526;13.360;2022-10-23T09:45:57;6.67;;;4.80;;
3755;SDS011;1893;52.526;13.360;2022-10-23T09:48:24;4.50;;;3.57;;
3755;SDS011;1893;52.526;13.360;2022-10-23T09:50:52;4.03;;;3.70;;
3755;SDS011;1893;52.526;13.360;2022-10-23T09:55:56;4.73;;;3.53;;
3755;SDS011;1893;52.526;13.360;2022-10-23T09:58:29;6.70;;;3.10;;
3755;SDS011;1893;52.526;13.360;2022-10-23T10:01:01;4.10;;;3.80;;
3755;SDS011;1893;52.526;13.360;2022-10-23T10:03:27;9.40;;;4.27;;
3755;SDS011;1893;52.526;13.360;2022-10-23T10:05:54;4.00;;;3.70;;
3755;SDS011;1893;52.526;13.360;2022-10-23T10:11:34;2.97;;;2.67;;
3755;SDS011;1893;52.526;13.360;2022-10-23T10:25:01;2.50;;;2.20;;
3755;SDS011;1893;52.526;13.360;2022-10-23T10:27:33;3.00;;;2.00;;
3755;SDS011;1893;52.526;13.360;2022-10-23T10:30:21;3.20;;;1.70;;
3755;SDS011;1893;52.526;13.360;2022-10-23T10:33:02;8.27;;;3.27;;
3755;SDS011;1893;52.526;13.360;2022-10-23T10:46:55;14.00;;;2.20;;
3755;SDS011;1893;52.526;13.360;2022-10-23T10:49:34;3.70;;;2.23;;
3755;SDS011;1893;52.526;13.360;2022-10-23T10:55:12;2.90;;;1.93;;
3755;SDS011;1893;52.526;13.360;2022-10-23T10:57:43;6.47;;;2.20;;
3755;SDS011;1893;52.526;13.360;2022-10-23T11:00:16;5.60;;;2.37;;
3755;SDS011;1893;52.526;13.360;2022-10-23T11:05:30;5.10;;;1.93;;
3755;SDS011;1893;52.526;13.360;2022-10-23T11:08:04;5.13;;;2.83;;
3755;SDS011;1893;52.526;13.360;2022-10-23T11:10:38;2.40;;;2.20;;
3755;SDS011;1893;52.526;13.360;2022-10-23T11:13:23;3.30;;;2.43;;
3755;SDS011;1893;52.526;13.360;2022-10-23T11:15:54;2.50;;;2.23;;
3755;SDS011;1893;52.526;13.360;2022-10-23T11:18:27;2.80;;;2.57;;
3755;SDS011;1893;52.526;13.360;2022-10-23T11:26:43;4.60;;;2.40;;
3755;SDS011;1893;52.526;13.360;2022-10-23T11:34:52;3.57;;;2.13;;
3755;SDS011;1893;52.526;13.360;2022-10-23T11:37:28;5.97;;;2.60;;
3755;SDS011;1893;52.526;13.360;2022-10-23T11:45:23;2.90;;;2.47;;
3755;SDS011;1893;52.526;13.360;2022-10-23T11:48:01;3.47;;;2.80;;
3755;SDS011;1893;52.526;13.360;2022-10-23T11:53:22;4.87;;;1.80;;
3755;SDS011;1893;52.526;13.360;2022-10-23T11:58:27;9.37;;;1.57;;
3755;SDS011;1893;52.526;13.360;2022-10-23T12:01:15;8.63;;;1.90;;
3755;SDS011;1893;52.526;13.360;2022-10-23T12:06:43;3.70;;;1.90;;
3755;SDS011;1893;52.526;13.360;2022-10-23T12:14:32;5.83;;;1.67;;
3755;SDS011;1893;52.526;13.360;2022-10-23T12:16:58;4.30;;;1.80;;
3755;SDS011;1893;52.526;13.360;2022-10-23T12:19:25;2.80;;;1.77;;
3755;SDS011;1893;52.526;13.360;2022-10-23T12:22:07;3.77;;;1.53;;
3755;SDS011;1893;52.526;13.360;2022-10-23T12:24:40;4.97;;;1.67;;
3755;SDS011;1893;52.526;13.360;2022-10-23T12:27:10;2.80;;;1.77;;
3755;SDS011;1893;52.526;13.360;2022-10-23T12:29:47;2.70;;;1.60;;
3755;SDS011;1893;52.526;13.360;2022-10-23T12:35:16;12.57;;;1.67;;
3755;SDS011;1893;52.526;13.360;2022-10-23T12:37:59;5.17;;;1.67;;
3755;SDS011;1893;52.526;13.360;2022-10-23T12:40:36;3.83;;;1.53;;
3755;SDS011;1893;52.526;13.360;2022-10-23T12:43:02;4.70;;;1.60;;
3755;SDS011;1893;52.526;13.360;2022-10-23T12:45:29;6.43;;;2.10;;
3755;SDS011;1893;52.526;13.360;2022-10-23T12:48:02;3.73;;;1.90;;
3755;SDS011;1893;52.526;13.360;2022-10-23T12:50:30;4.27;;;2.30;;
3755;SDS011;1893;52.526;13.360;2022-10-23T12:52:58;2.43;;;1.50;;
3755;SDS011;1893;52.526;13.360;2022-10-23T12:55:27;4.03;;;1.73;;
3755;SDS011;1893;52.526;13.360;2022-10-23T12:57:54;3.43;;;1.57;;
3755;SDS011;1893;52.526;13.360;2022-10-23T13:00:21;2.70;;;1.73;;
3755;SDS011;1893;52.526;13.360;2022-10-23T13:03:00;7.73;;;2.20;;
3755;SDS011;1893;52.526;13.360;2022-10-23T13:05:28;3.17;;;2.00;;
3755;SDS011;1893;52.526;13.360;2022-10-23T13:07:54;3.60;;;1.90;;
3755;SDS011;1893;52.526;13.360;2022-10-23T13:10:23;4.60;;;2.50;;
3755;SDS011;1893;52.526;13.360;2022-10-23T13:12:57;3.27;;;1.83;;
3755;SDS011;1893;52.526;13.360;2022-10-23T13:15:34;3.60;;;3.30;;
3755;SDS011;1893;52.526;13.360;2022-10-23T13:18:08;3.83;;;1.87;;
3755;SDS011;1893;52.526;13.360;2022-10-23T13:20:40;8.60;;;2.33;;
3755;SDS011;1893;52.526;13.360;2022-10-23T13:23:16;3.23;;;2.10;;
3755;SDS011;1893;52.526;13.360;2022-10-23T13:25:59;5.10;;;2.37;;
3755;SDS011;1893;52.526;13.360;2022-10-23T13:38:38;4.80;;;2.53;;
3755;SDS011;1893;52.526;13.360;2022-10-23T13:41:13;4.80;;;2.20;;
3755;SDS011;1893;52.526;13.360;2022-10-23T13:43:40;4.13;;;2.97;;
3755;SDS011;1893;52.526;13.360;2022-10-23T13:46:11;4.00;;;2.80;;
3755;SDS011;1893;52.526;13.360;2022-10-23T13:48:44;7.23;;;2.60;;
3755;SDS011;1893;52.526;13.360;2022-10-23T13:51:14;8.67;;;2.40;;
3755;SDS011;1893;52.526;13.360;2022-10-23T13:53:44;5.10;;;2.40;;
3755;SDS011;1893;52.526;13.360;2022-10-23T13:56:10;6.03;;;2.60;;
3755;SDS011;1893;52.526;13.360;2022-10-23T13:58:37;2.40;;;2.07;;
3755;SDS011;1893;52.526;13.360;2022-10-23T14:01:03;4.70;;;2.20;;
3755;SDS011;1893;52.526;13.360;2022-10-23T14:03:29;2.10;;;1.80;;
3755;SDS011;1893;52.526;13.360;2022-10-23T14:05:54;4.60;;;3.57;;
3755;SDS011;1893;52.526;13.360;2022-10-23T14:08:20;6.30;;;2.43;;
3755;SDS011;1893;52.526;13.360;2022-10-23T14:10:46;7.53;;;2.40;;
3755;SDS011;1893;52.526;13.360;2022-10-23T14:13:11;11.40;;;2.10;;
3755;SDS011;1893;52.526;13.360;2022-10-23T14:15:37;6.73;;;2.83;;
3755;SDS011;1893;52.526;13.360;2022-10-23T14:18:02;3.63;;;2.33;;
3755;SDS011;1893;52.526;13.360;2022-10-23T14:20:28;5.63;;;2.60;;
3755;SDS011;1893;52.526;13.360;2022-10-23T14:22:54;4.80;;;3.00;;
3755;SDS011;1893;52.526;13.360;2022-10-23T14:25:19;6.93;;;2.63;;
3755;SDS011;1893;52.526;13.360;2022-10-23T14:27:45;3.80;;;1.90;;
3755;SDS011;1893;52.526;13.360;2022-10-23T14:30:11;5.13;;;2.53;;
3755;SDS011;1893;52.526;13.360;2022-10-23T14:32:36;4.20;;;2.30;;
3755;SDS011;1893;52.526;13.360;2022-10-23T14:35:02;2.90;;;2.07;;
3755;SDS011;1893;52.526;13.360;2022-10-23T14:37:31;3.60;;;2.03;;
3755;SDS011;1893;52.526;13.360;2022-10-23T14:39:58;3.00;;;2.50;;
3755;SDS011;1893;52.526;13.360;2022-10-23T14:42:24;6.53;;;2.60;;
3755;SDS011;1893;52.526;13.360;2022-10-23T14:44:51;2.90;;;2.40;;
3755;SDS011;1893;52.526;13.360;2022-10-23T14:47:16;4.20;;;2.10;;
3755;SDS011;1893;52.526;13.360;2022-10-23T14:49:45;6.17;;;2.27;;
3755;SDS011;1893;52.526;13.360;2022-10-23T14:52:15;5.60;;;2.30;;
3755;SDS011;1893;52.526;13.360;2022-10-23T14:54:41;3.77;;;2.30;;
3755;SDS011;1893;52.526;13.360;2022-10-23T14:57:06;5.20;;;3.03;;
3755;SDS011;1893;52.526;13.360;2022-10-23T14:59:32;4.20;;;2.43;;
3755;SDS011;1893;52.526;13.360;2022-10-23T15:01:58;5.10;;;2.43;;
3755;SDS011;1893;52.526;13.360;2022-10-23T15:04:23;5.60;;;2.73;;
3755;SDS011;1893;52.526;13.360;2022-10-23T15:06:49;7.13;;;2.67;;
3755;SDS011;1893;52.526;13.360;2022-10-23T15:09:15;7.77;;;2.77;;
3755;SDS011;1893;52.526;13.360;2022-10-23T15:11:43;6.83;;;2.97;;
3755;SDS011;1893;52.526;13.360;2022-10-23T15:14:09;2.33;;;2.00;;
3755;SDS011;1893;52.526;13.360;2022-10-23T15:16:34;3.43;;;1.87;;
3755;SDS011;1893;52.526;13.360;2022-10-23T15:19:05;2.70;;;2.30;;
3755;SDS011;1893;52.526;13.360;2022-10-23T15:21:32;3.53;;;2.27;;
3755;SDS011;1893;52.526;13.360;2022-10-23T15:23:57;5.63;;;2.50;;
3755;SDS011;1893;52.526;13.360;2022-10-23T15:26:24;5.90;;;2.97;;
3755;SDS011;1893;52.526;13.360;2022-10-23T15:28:58;5.93;;;2.53;;
3755;SDS011;1893;52.526;13.360;2022-10-23T15:33:52;3.43;;;2.20;;
3755;SDS011;1893;52.526;13.360;2022-10-23T15:36:18;6.20;;;2.60;;
3755;SDS011;1893;52.526;13.360;2022-10-23T15:38:44;4.00;;;2.53;;
3755;SDS011;1893;52.526;13.360;2022-10-23T15:41:13;7.07;;;2.70;;
3755;SDS011;1893;52.526;13.360;2022-10-23T15:43:40;4.40;;;2.90;;
3755;SDS011;1893;52.526;13.360;2022-10-23T15:46:06;4.33;;;2.73;;
3755;SDS011;1893;52.526;13.360;2022-10-23T15:48:31;10.57;;;3.53;;
3755;SDS011;1893;52.526;13.360;2022-10-23T15:50:57;4.93;;;2.83;;
3755;SDS011;1893;52.526;13.360;2022-10-23T15:53:23;5.53;;;3.60;;
3755;SDS011;1893;52.526;13.360;2022-10-23T15:55:49;4.73;;;3.33;;
3755;SDS011;1893;52.526;13.360;2022-10-23T15:58:14;4.40;;;2.80;;
3755;SDS011;1893;52.526;13.360;2022-10-23T16:00:40;6.83;;;3.53;;
3755;SDS011;1893;52.526;13.360;2022-10-23T16:03:05;7.07;;;2.70;;
3755;SDS011;1893;52.526;13.360;2022-10-23T16:05:31;3.93;;;2.87;;
3755;SDS011;1893;52.526;13.360;2022-10-23T16:07:56;5.60;;;3.67;;
3755;SDS011;1893;52.526;13.360;2022-10-23T16:10:22;12.40;;;3.97;;
3755;SDS011;1893;52.526;13.360;2022-10-23T16:12:48;3.40;;;3.10;;
3755;SDS011;1893;52.526;13.360;2022-10-23T16:15:14;5.10;;;3.27;;
3755;SDS011;1893;52.526;13.360;2022-10-23T16:17:40;8.13;;;3.23;;
3755;SDS011;1893;52.526;13.360;2022-10-23T16:20:06;4.53;;;2.70;;
3755;SDS011;1893;52.526;13.360;2022-10-23T16:22:31;5.77;;;2.90;;
3755;SDS011;1893;52.526;13.360;2022-10-23T16:24:57;7.13;;;3.83;;
3755;SDS011;1893;52.526;13.360;2022-10-23T16:27:23;3.77;;;3.40;;
3755;SDS011;1893;52.526;13.360;2022-10-23T16:29:48;5.33;;;4.00;;
3755;SDS011;1893;52.526;13.360;2022-10-23T16:32:14;7.20;;;3.60;;
3755;SDS011;1893;52.526;13.360;2022-10-23T16:34:40;6.53;;;3.13;;
3755;SDS011;1893;52.526;13.360;2022-10-23T16:37:05;7.23;;;5.00;;
3755;SDS011;1893;52.526;13.360;2022-10-23T16:39:31;6.33;;;4.30;;
3755;SDS011;1893;52.526;13.360;2022-10-23T16:41:56;8.47;;;4.90;;
3755;SDS011;1893;52.526;13.360;2022-10-23T16:44:22;8.40;;;4.70;;
3755;SDS011;1893;52.526;13.360;2022-10-23T16:46:48;6.97;;;5.40;;
3755;SDS011;1893;52.526;13.360;2022-10-23T16:49:13;8.37;;;5.37;;
3755;SDS011;1893;52.526;13.360;2022-10-23T16:51:39;7.37;;;5.60;;
3755;SDS011;1893;52.526;13.360;2022-10-23T16:54:04;10.50;;;6.70;;
3755;SDS011;1893;52.526;13.360;2022-10-23T16:56:30;12.80;;;5.73;;
3755;SDS011;1893;52.526;13.360;2022-10-23T16:58:56;10.00;;;6.00;;
3755;SDS011;1893;52.526;13.360;2022-10-23T17:01:24;6.33;;;5.20;;
3755;SDS011;1893;52.526;13.360;2022-10-23T17:03:53;5.83;;;4.80;;
3755;SDS011;1893;52.526;13.360;2022-10-23T17:06:21;12.07;;;5.60;;
3755;SDS011;1893;52.526;13.360;2022-10-23T17:08:48;10.27;;;5.47;;
3755;SDS011;1893;52.526;13.360;2022-10-23T17:11:18;8.13;;;5.60;;
3755;SDS011;1893;52.526;13.360;2022-10-23T17:13:45;12.50;;;4.83;;
3755;SDS011;1893;52.526;13.360;2022-10-23T17:19:12;9.10;;;5.67;;
3755;SDS011;1893;52.526;13.360;2022-10-23T17:21:39;6.33;;;4.80;;